createdAt,value
2023-02-05T00:02:18.110Z,99054.16
2023-02-05T00:04:46.234Z,99052.47
2023-02-05T00:07:14.330Z,99060.19
2023-02-05T00:09:43.794Z,99064.53
2023-02-05T00:12:11.986Z,99058.50
2023-02-05T00:14:40.064Z,99067.13
2023-02-05T00:17:08.165Z,99068.84
2023-02-05T00:19:36.343Z,99075.78
2023-02-05T00:22:04.465Z,99070.59
2023-02-05T00:24:32.577Z,99075.72
2023-02-05T00:27:02.143Z,99081.81
2023-02-05T00:29:30.233Z,99068.78
2023-02-05T00:31:58.353Z,99078.41
2023-02-05T00:34:26.550Z,99069.75
2023-02-05T00:36:54.647Z,99077.56
2023-02-05T00:39:23.967Z,99077.59
2023-02-05T00:41:52.707Z,99080.25
2023-02-05T00:44:22.193Z,99079.34
2023-02-05T00:46:50.479Z,99076.78
2023-02-05T00:49:18.697Z,99077.63
2023-02-05T00:51:46.796Z,99075.84
2023-02-05T00:54:14.952Z,99068.91
2023-02-05T00:56:43.098Z,99065.50
2023-02-05T00:59:11.904Z,99061.97
2023-02-05T01:01:41.476Z,99064.56
2023-02-05T01:04:09.742Z,99076.69
2023-02-05T01:06:37.891Z,99073.19
2023-02-05T01:09:06.039Z,99082.72
2023-02-05T01:11:34.101Z,99082.72
2023-02-05T01:14:02.347Z,99086.16
2023-02-05T01:16:30.486Z,99089.63
2023-02-05T01:19:00.846Z,99088.66
2023-02-05T01:21:29.453Z,99090.53
2023-02-05T01:23:57.925Z,99089.69
2023-02-05T01:26:25.957Z,99082.78
2023-02-05T01:28:54.053Z,99087.13
2023-02-05T01:31:22.440Z,99088.94
2023-02-05T01:33:50.612Z,99087.19
2023-02-05T01:36:20.113Z,99089.69
2023-02-05T01:38:48.962Z,99080.09
2023-02-05T01:41:17.288Z,99085.25
2023-02-05T01:43:45.463Z,99087.75
2023-02-05T01:46:25.392Z,99080.66
2023-02-05T01:48:58.909Z,99074.53
2023-02-05T01:51:31.592Z,99066.66
2023-02-05T01:53:59.906Z,99056.25
2023-02-05T01:56:33.297Z,99057.91
2023-02-05T01:59:08.500Z,99053.50
2023-02-05T02:01:38.707Z,99054.31
2023-02-05T02:04:07.241Z,99056.78
2023-02-05T02:06:38.651Z,99055.00
2023-02-05T02:09:08.285Z,99054.06
2023-02-05T02:11:40.462Z,99053.19
2023-02-05T02:14:10.577Z,99049.66
2023-02-05T02:16:40.741Z,99048.78
2023-02-05T02:19:18.041Z,99051.38
2023-02-05T02:22:30.879Z,99047.00
2023-02-05T02:25:31.258Z,99051.28
2023-02-05T02:28:05.156Z,99046.03
2023-02-05T02:30:40.955Z,99045.22
2023-02-05T02:33:15.019Z,99054.69
2023-02-05T02:35:48.453Z,99058.25
2023-02-05T02:38:23.519Z,99051.28
2023-02-05T02:40:55.676Z,99051.28
2023-02-05T02:43:31.791Z,99053.03
2023-02-05T02:46:02.740Z,99064.31
2023-02-05T02:48:33.873Z,99059.13
2023-02-05T02:51:04.448Z,99057.34
2023-02-05T02:53:37.803Z,99059.88
2023-02-05T02:56:09.184Z,99059.09
2023-02-05T02:58:44.003Z,99053.84
2023-02-05T03:01:17.642Z,99061.59
2023-02-05T03:03:52.672Z,99065.00
2023-02-05T03:06:23.350Z,99068.41
2023-02-05T03:08:57.264Z,99064.97
2023-02-05T03:11:27.173Z,99067.63
2023-02-05T03:13:58.190Z,99072.84
2023-02-05T03:16:30.856Z,99062.38
2023-02-05T03:18:59.696Z,99071.91
2023-02-05T03:21:35.026Z,99077.00
2023-02-05T03:24:03.415Z,99073.56
2023-02-05T03:26:35.193Z,99072.69
2023-02-05T03:29:19.576Z,99063.09
2023-02-05T03:32:02.188Z,99069.97
2023-02-05T03:34:41.309Z,99067.25
2023-02-05T03:37:27.898Z,99068.13
2023-02-05T03:40:07.043Z,99073.34
2023-02-05T03:42:47.315Z,99071.59
2023-02-05T03:45:27.435Z,99074.09
2023-02-05T03:48:13.369Z,99074.88
2023-02-05T03:50:45.467Z,99067.94
2023-02-05T03:53:24.479Z,99061.84
2023-02-05T03:56:02.211Z,99067.00
2023-02-05T03:58:35.659Z,99071.16
2023-02-05T04:01:08.507Z,99065.13
2023-02-05T04:03:36.819Z,99061.56
2023-02-05T04:06:05.858Z,99066.66
2023-02-05T04:08:34.364Z,99062.28
2023-02-05T04:11:02.580Z,99051.81
2023-02-05T04:13:30.967Z,99070.25
2023-02-05T04:15:59.822Z,99075.38
2023-02-05T04:18:29.374Z,99078.63
2023-02-05T04:20:59.179Z,99086.50
2023-02-05T04:23:29.612Z,99077.13
2023-02-05T04:25:57.888Z,99082.44
2023-02-05T04:28:33.621Z,99080.81
2023-02-05T04:31:07.392Z,99078.25
2023-02-05T04:33:37.202Z,99080.78
2023-02-05T04:36:06.135Z,99072.03
2023-02-05T04:38:34.577Z,99077.22
2023-02-05T04:41:02.728Z,99078.09
2023-02-05T04:43:30.834Z,99073.72
2023-02-05T04:45:58.973Z,99085.34
2023-02-05T04:48:27.153Z,99092.50
2023-02-05T04:50:56.578Z,99085.63
2023-02-05T04:53:24.782Z,99087.25
2023-02-05T04:55:54.988Z,99087.22
2023-02-05T04:58:23.112Z,99086.09
2023-02-05T05:00:51.119Z,99084.97
2023-02-05T05:03:19.159Z,99084.91
2023-02-05T05:05:47.270Z,99081.38
2023-02-05T05:08:16.719Z,99084.00
2023-02-05T05:10:44.835Z,99091.94
2023-02-05T05:13:12.895Z,99092.69
2023-02-05T05:15:41.416Z,99094.47
2023-02-05T05:18:09.528Z,99096.25
2023-02-05T05:20:37.623Z,99098.22
2023-02-05T05:23:05.674Z,99098.28
2023-02-05T05:25:35.571Z,99100.97
2023-02-05T05:28:03.793Z,99108.00
2023-02-05T05:30:31.869Z,99111.50
2023-02-05T05:32:59.914Z,99111.41
2023-02-05T05:35:27.980Z,99124.44
2023-02-05T05:37:58.017Z,99135.69
2023-02-05T05:40:40.446Z,99139.84
2023-02-05T05:43:31.160Z,99138.19
2023-02-05T05:45:59.318Z,99135.63
2023-02-05T05:48:27.641Z,99138.13
2023-02-05T05:50:55.790Z,99137.34
2023-02-05T05:53:24.608Z,99143.50
2023-02-05T05:55:52.699Z,99132.91
2023-02-05T05:58:22.219Z,99151.06
2023-02-05T06:00:50.351Z,99143.41
2023-02-05T06:03:18.416Z,99147.72
2023-02-05T06:05:46.537Z,99162.53
2023-02-05T06:08:16.341Z,99158.19
2023-02-05T06:10:44.536Z,99169.31
2023-02-05T06:13:12.711Z,99171.94
2023-02-05T06:15:42.210Z,99170.13
2023-02-05T06:18:10.341Z,99167.63
2023-02-05T06:20:38.413Z,99166.63
2023-02-05T06:23:06.616Z,99176.13
2023-02-05T06:25:34.971Z,99186.47
2023-02-05T06:28:03.234Z,99185.56
2023-02-05T06:30:31.427Z,99182.13
2023-02-05T06:33:00.897Z,99180.38
2023-02-05T06:35:29.152Z,99193.47
2023-02-05T06:37:57.242Z,99195.16
2023-02-05T06:40:25.997Z,99206.78
2023-02-05T06:42:54.753Z,99202.47
2023-02-05T06:45:23.238Z,99220.88
2023-02-05T06:47:53.285Z,99214.19
2023-02-05T06:50:22.773Z,99222.13
2023-02-05T06:52:51.393Z,99226.63
2023-02-05T06:55:19.746Z,99224.25
2023-02-05T06:57:47.918Z,99231.19
2023-02-05T07:00:17.453Z,99234.75
2023-02-05T07:02:45.585Z,99231.19
2023-02-05T07:05:13.842Z,99227.75
2023-02-05T07:07:43.320Z,99232.09
2023-02-05T07:10:11.521Z,99236.75
2023-02-05T07:12:39.592Z,99230.78
2023-02-05T07:15:08.307Z,99234.22
2023-02-05T07:17:36.377Z,99244.69
2023-02-05T07:20:04.857Z,99237.19
2023-02-05T07:22:33.056Z,99240.00
2023-02-05T07:25:04.622Z,99248.63
2023-02-05T07:27:32.955Z,99253.03
2023-02-05T07:30:01.274Z,99251.19
2023-02-05T07:32:29.481Z,99247.06
2023-02-05T07:34:57.575Z,99249.72
2023-02-05T07:37:25.720Z,99252.50
2023-02-05T07:39:53.849Z,99244.00
2023-02-05T07:42:23.316Z,99244.16
2023-02-05T07:44:57.420Z,99258.28
2023-02-05T07:47:25.526Z,99252.31
2023-02-05T07:49:53.692Z,99255.00
2023-02-05T07:52:21.797Z,99249.63
2023-02-05T07:54:50.726Z,99255.84
2023-02-05T07:57:18.860Z,99258.53
2023-02-05T07:59:48.373Z,99265.47
2023-02-05T08:02:16.515Z,99258.53
2023-02-05T08:04:44.704Z,99252.44
2023-02-05T08:07:13.681Z,99275.06
2023-02-05T08:09:41.903Z,99275.09
2023-02-05T08:12:10.167Z,99275.97
2023-02-05T08:14:38.273Z,99267.25
2023-02-05T08:17:07.833Z,99273.34
2023-02-05T08:19:36.115Z,99275.06
2023-02-05T08:22:04.300Z,99284.63
2023-02-05T08:24:32.752Z,99286.19
2023-02-05T08:27:00.970Z,99273.91
2023-02-05T08:29:29.070Z,99280.75
2023-02-05T08:31:57.549Z,99279.94
2023-02-05T08:34:27.019Z,99268.38
2023-02-05T08:36:55.168Z,99263.72
2023-02-05T08:39:26.144Z,99269.53
2023-02-05T08:41:56.736Z,99257.25
2023-02-05T08:44:25.209Z,99262.81
2023-02-05T08:46:53.288Z,99262.94
2023-02-05T08:49:21.548Z,99261.88
2023-02-05T08:51:51.049Z,99266.97
2023-02-05T08:54:19.286Z,99263.47
2023-02-05T08:56:53.027Z,99260.47
2023-02-05T08:59:21.776Z,99260.59
2023-02-05T09:01:50.226Z,99269.13
2023-02-05T09:04:20.464Z,99260.72
2023-02-05T09:06:50.308Z,99268.75
2023-02-05T09:09:19.029Z,99255.00
2023-02-05T09:11:47.764Z,99253.91
2023-02-05T09:14:16.857Z,99263.88
2023-02-05T09:16:45.039Z,99265.81
2023-02-05T09:19:13.165Z,99268.16
2023-02-05T09:21:42.280Z,99274.38
2023-02-05T09:24:11.746Z,99261.84
2023-02-05T09:26:39.929Z,99267.19
2023-02-05T09:29:08.018Z,99267.50
2023-02-05T09:31:37.132Z,99271.91
2023-02-05T09:34:05.289Z,99268.06
2023-02-05T09:36:33.520Z,99263.13
2023-02-05T09:39:14.030Z,99254.09
2023-02-05T09:41:57.261Z,99254.47
2023-02-05T09:44:42.764Z,99258.59
2023-02-05T09:47:15.742Z,99256.75
2023-02-05T09:49:51.398Z,99249.53
2023-02-05T09:52:23.104Z,99246.41
2023-02-05T09:54:57.037Z,99251.88
2023-02-05T09:57:34.580Z,99253.22
2023-02-05T10:00:03.621Z,99265.28
2023-02-05T10:02:50.141Z,99252.22
2023-02-05T10:05:22.504Z,99238.19
2023-02-05T10:07:57.483Z,99239.25
2023-02-05T10:10:28.102Z,99240.03
2023-02-05T10:13:28.687Z,99222.84
2023-02-05T10:16:30.184Z,99221.13
2023-02-05T10:19:15.633Z,99212.28
2023-02-05T10:21:57.558Z,99208.81
2023-02-05T10:24:41.740Z,99205.63
2023-02-05T10:27:18.589Z,99200.09
2023-02-05T10:29:57.339Z,99196.75
2023-02-05T10:32:29.113Z,99190.41
2023-02-05T10:34:59.770Z,99197.84
2023-02-05T10:37:39.579Z,99185.56
2023-02-05T10:40:14.774Z,99182.13
2023-02-05T10:42:48.048Z,99184.78
2023-02-05T10:45:21.299Z,99169.13
2023-02-05T10:48:07.083Z,99168.16
2023-02-05T10:50:49.949Z,99158.81
2023-02-05T10:53:20.756Z,99156.09
2023-02-05T10:55:49.495Z,99162.06
2023-02-05T10:58:37.111Z,99149.69
2023-02-05T11:01:07.878Z,99143.00
2023-02-05T11:03:37.195Z,99134.16
2023-02-05T11:06:11.263Z,99125.72
2023-02-05T11:08:42.436Z,99128.88
2023-02-05T11:11:21.914Z,99129.31
2023-02-05T11:13:54.297Z,99124.97
2023-02-05T11:16:25.039Z,99119.66
2023-02-05T11:18:59.086Z,99107.94
2023-02-05T11:21:47.372Z,99100.88
2023-02-05T11:24:25.944Z,99110.81
2023-02-05T11:27:14.821Z,99093.34
2023-02-05T11:29:43.237Z,99086.81
2023-02-05T11:32:21.865Z,99090.72
2023-02-05T11:34:50.081Z,99089.84
2023-02-05T11:37:20.464Z,99092.81
2023-02-05T11:39:54.974Z,99084.28
2023-02-05T11:42:26.152Z,99076.28
2023-02-05T11:44:56.758Z,99073.88
2023-02-05T11:47:30.062Z,99079.41
2023-02-05T11:49:59.740Z,99080.94
2023-02-05T11:52:30.179Z,99067.06
2023-02-05T11:54:59.094Z,99057.75
2023-02-05T11:57:35.724Z,99058.50
2023-02-05T12:00:21.172Z,99066.72
2023-02-05T12:02:54.142Z,99062.44
2023-02-05T12:05:25.927Z,99059.31
2023-02-05T12:08:02.024Z,99061.63
2023-02-05T12:10:38.449Z,99050.66
2023-02-05T12:13:19.889Z,99050.13
2023-02-05T12:15:55.602Z,99054.50
2023-02-05T12:18:37.222Z,99049.81
2023-02-05T12:21:16.012Z,99046.22
2023-02-05T12:24:08.841Z,99044.81
2023-02-05T12:26:40.985Z,99036.53
2023-02-05T12:29:23.863Z,99037.59
2023-02-05T12:32:05.268Z,99041.00
2023-02-05T12:34:44.147Z,99046.00
2023-02-05T12:37:27.972Z,99030.59
2023-02-05T12:40:06.910Z,99028.59
2023-02-05T12:42:39.385Z,99026.19
2023-02-05T12:45:35.021Z,99027.63
2023-02-05T12:48:19.208Z,99026.41
2023-02-05T12:51:00.772Z,99017.44
2023-02-05T12:53:49.280Z,99013.88
2023-02-05T12:56:40.066Z,99020.97
2023-02-05T12:59:16.638Z,99023.00
2023-02-05T13:01:54.786Z,99012.22
2023-02-05T13:04:29.921Z,99024.72
2023-02-05T13:07:11.830Z,99024.06
2023-02-05T13:09:51.148Z,99014.56
2023-02-05T13:12:23.890Z,99006.22
2023-02-05T13:15:02.505Z,99016.22
2023-02-05T13:17:35.577Z,98994.53
2023-02-05T13:20:08.312Z,99014.44
2023-02-05T13:23:01.850Z,99000.16
2023-02-05T13:25:58.889Z,99006.06
2023-02-05T13:28:43.132Z,99002.31
2023-02-05T13:31:20.270Z,99008.44
2023-02-05T13:33:49.610Z,98995.78
2023-02-05T13:36:57.532Z,98994.09
2023-02-05T13:39:51.539Z,98985.06
2023-02-05T13:42:34.299Z,98984.28
2023-02-05T13:45:50.143Z,98995.03
2023-02-05T13:48:42.198Z,98993.34
2023-02-05T13:51:41.666Z,98991.97
2023-02-05T13:54:56.000Z,98999.00
2023-02-05T13:58:06.012Z,98992.31
2023-02-05T14:00:36.253Z,98987.19
2023-02-05T14:03:09.111Z,98985.19
2023-02-05T14:05:41.091Z,98986.84
2023-02-05T14:08:22.881Z,98984.19
2023-02-05T14:11:01.010Z,98988.50
2023-02-05T14:13:34.509Z,99005.59
2023-02-05T14:16:34.904Z,99007.69
2023-02-05T14:19:19.957Z,99005.72
2023-02-05T14:22:07.510Z,99014.41
2023-02-05T14:24:48.030Z,99005.47
2023-02-05T14:27:57.330Z,99005.72
2023-02-05T14:30:53.084Z,98997.34
2023-02-05T14:33:38.722Z,99005.47
2023-02-05T14:36:34.186Z,99012.06
2023-02-05T14:39:19.981Z,99003.75
2023-02-05T14:41:53.518Z,99013.69
2023-02-05T14:44:27.319Z,99016.06
2023-02-05T14:47:04.536Z,99008.03
2023-02-05T14:49:42.311Z,99012.84
2023-02-05T14:52:28.106Z,99015.69
2023-02-05T14:55:01.308Z,99004.25
2023-02-05T14:57:38.765Z,99009.66
2023-02-05T15:00:24.606Z,99015.19
2023-02-05T15:03:17.333Z,99008.03
2023-02-05T15:05:54.156Z,99016.47
2023-02-05T15:08:31.813Z,99015.31
2023-02-05T15:11:09.784Z,99021.94
2023-02-05T15:13:39.264Z,99020.44
2023-02-05T15:16:24.068Z,99026.88
2023-02-05T15:18:57.540Z,99024.47
2023-02-05T15:21:29.189Z,99024.59
2023-02-05T15:24:02.535Z,99024.78
2023-02-05T15:26:41.558Z,99034.88
2023-02-05T15:29:18.256Z,99037.06
2023-02-05T15:31:52.358Z,99034.88
2023-02-05T15:34:38.340Z,99032.38
2023-02-05T15:37:17.022Z,99043.09
2023-02-05T15:39:52.695Z,99044.16
2023-02-05T15:42:31.053Z,99051.41
2023-02-05T15:45:17.436Z,99046.34
2023-02-05T15:47:47.535Z,99054.34
2023-02-05T15:50:19.456Z,99047.41
2023-02-05T15:52:49.196Z,99061.38
2023-02-05T15:55:22.654Z,99050.13
2023-02-05T15:57:53.623Z,99060.72
2023-02-05T16:00:28.837Z,99073.78
2023-02-05T16:03:00.098Z,99070.34
2023-02-05T16:05:34.467Z,99067.78
2023-02-05T16:08:06.069Z,99080.91
2023-02-05T16:10:38.384Z,99077.44
2023-02-05T16:13:10.149Z,99079.19
2023-02-05T16:15:47.039Z,99073.97
2023-02-05T16:18:22.936Z,99080.06
2023-02-05T16:20:59.130Z,99088.75
2023-02-05T16:23:33.177Z,99094.84
2023-02-05T16:26:06.781Z,99094.84
2023-02-05T16:28:42.191Z,99099.19
2023-02-05T16:31:19.445Z,99079.16
2023-02-05T16:33:53.693Z,99088.72
2023-02-05T16:36:31.327Z,99096.56
2023-02-05T16:39:03.603Z,99100.88
2023-02-05T16:41:37.243Z,99100.81
2023-02-05T16:44:09.910Z,99106.84
2023-02-05T16:46:41.330Z,99110.22
2023-02-05T16:49:32.496Z,99108.47
2023-02-05T16:52:03.883Z,99121.47
2023-02-05T16:54:36.495Z,99121.47
2023-02-05T16:57:10.451Z,99120.59
2023-02-05T16:59:52.279Z,99121.41
2023-02-05T17:02:30.214Z,99124.88
2023-02-05T17:05:02.026Z,99128.34
2023-02-05T17:07:34.660Z,99129.22
2023-02-05T17:10:16.811Z,99130.09
2023-02-05T17:12:58.772Z,99128.34
2023-02-05T17:15:32.272Z,99123.06
2023-02-05T17:18:06.906Z,99123.03
2023-02-05T17:20:37.507Z,99122.97
2023-02-05T17:23:16.291Z,99124.69
2023-02-05T17:25:53.853Z,99120.28
2023-02-05T17:28:26.621Z,99107.25
2023-02-05T17:30:57.832Z,99112.53
2023-02-05T17:33:29.321Z,99120.25
2023-02-05T17:35:59.352Z,99134.03
2023-02-05T17:38:34.050Z,99135.78
2023-02-05T17:41:24.339Z,99129.66
2023-02-05T17:43:54.698Z,99133.16
2023-02-05T17:46:23.474Z,99140.09
2023-02-05T17:48:53.016Z,99147.00
2023-02-05T17:51:26.970Z,99140.00
2023-02-05T17:53:58.588Z,99147.75
2023-02-05T17:56:28.413Z,99146.00
2023-02-05T17:59:01.643Z,99158.09
2023-02-05T18:01:31.763Z,99151.09
2023-02-05T18:04:02.728Z,99147.66
2023-02-05T18:06:33.002Z,99147.59
2023-02-05T18:09:04.735Z,99157.06
2023-02-05T18:11:34.083Z,99158.69
2023-02-05T18:14:03.468Z,99175.91
2023-02-05T18:16:33.684Z,99166.41
2023-02-05T18:19:04.383Z,99171.56
2023-02-05T18:21:35.250Z,99168.91
2023-02-05T18:24:07.167Z,99174.91
2023-02-05T18:26:38.892Z,99167.13
2023-02-05T18:29:10.148Z,99165.25
2023-02-05T18:31:40.161Z,99167.78
2023-02-05T18:34:09.688Z,99164.25
2023-02-05T18:36:39.969Z,99172.09
2023-02-05T18:39:19.342Z,99166.00
2023-02-05T18:41:49.733Z,99175.47
2023-02-05T18:44:22.369Z,99176.22
2023-02-05T18:46:55.153Z,99183.97
2023-02-05T18:49:27.447Z,99181.34
2023-02-05T18:51:57.304Z,99192.47
2023-02-05T18:54:28.397Z,99194.13
2023-02-05T18:56:59.355Z,99204.41
2023-02-05T18:59:29.188Z,99196.56
2023-02-05T19:01:59.649Z,99199.91
2023-02-05T19:04:33.296Z,99197.44
2023-02-05T19:07:02.529Z,99200.84
2023-02-05T19:09:34.216Z,99208.53
2023-02-05T19:12:04.277Z,99218.03
2023-02-05T19:14:34.938Z,99206.72
2023-02-05T19:17:03.964Z,99201.47
2023-02-05T19:19:34.567Z,99207.53
2023-02-05T19:22:06.722Z,99211.06
2023-02-05T19:24:40.961Z,99210.88
2023-02-05T19:27:11.533Z,99212.66
2023-02-05T19:29:41.622Z,99216.06
2023-02-05T19:32:11.806Z,99220.34
2023-02-05T19:34:47.113Z,99221.88
2023-02-05T19:37:18.176Z,99220.09
2023-02-05T19:39:51.132Z,99224.38
2023-02-05T19:42:20.645Z,99225.13
2023-02-05T19:44:49.984Z,99223.28
2023-02-05T19:47:24.954Z,99223.25
2023-02-05T19:49:56.649Z,99236.22
2023-02-05T19:52:26.680Z,99231.78
2023-02-05T19:54:58.734Z,99239.63
2023-02-05T19:57:28.139Z,99236.09
2023-02-05T19:59:57.320Z,99233.44
2023-02-05T20:02:27.874Z,99239.34
2023-02-05T20:04:58.804Z,99244.53
2023-02-05T20:07:29.834Z,99241.81
2023-02-05T20:10:07.177Z,99245.41
2023-02-05T20:12:37.254Z,99252.19
2023-02-05T20:15:08.144Z,99253.94
2023-02-05T20:17:37.859Z,99249.47
2023-02-05T20:20:14.133Z,99256.44
2023-02-05T20:22:46.993Z,99258.91
2023-02-05T20:25:18.481Z,99255.41
2023-02-05T20:27:48.019Z,99263.16
2023-02-05T20:30:36.728Z,99256.16
2023-02-05T20:33:08.543Z,99257.72
2023-02-05T20:35:41.074Z,99257.56
2023-02-05T20:38:11.575Z,99270.59
2023-02-05T20:40:43.336Z,99266.19
2023-02-05T20:43:13.446Z,99270.28
2023-02-05T20:45:42.526Z,99272.84
2023-02-05T20:48:11.836Z,99277.06
2023-02-05T20:50:41.265Z,99276.91
2023-02-05T20:53:11.626Z,99269.09
2023-02-05T20:55:42.565Z,99273.28
2023-02-05T20:58:11.785Z,99277.63
2023-02-05T21:00:40.475Z,99272.25
2023-02-05T21:03:09.055Z,99273.13
2023-02-05T21:05:38.500Z,99278.16
2023-02-05T21:08:08.488Z,99271.25
2023-02-05T21:10:37.887Z,99275.47
2023-02-05T21:13:08.892Z,99280.63
2023-02-05T21:15:37.732Z,99286.50
2023-02-05T21:18:07.069Z,99277.75
2023-02-05T21:20:40.880Z,99282.84
2023-02-05T21:23:10.157Z,99290.56
2023-02-05T21:25:40.203Z,99289.66
2023-02-05T21:28:11.022Z,99302.50
2023-02-05T21:30:41.085Z,99302.59
2023-02-05T21:33:10.008Z,99299.84
2023-02-05T21:35:39.901Z,99301.38
2023-02-05T21:38:08.379Z,99293.75
2023-02-05T21:40:40.329Z,99288.50
2023-02-05T21:43:10.034Z,99297.09
2023-02-05T21:45:38.793Z,99295.91
2023-02-05T21:48:08.054Z,99297.81
2023-02-05T21:50:36.469Z,99301.09
2023-02-05T21:53:04.883Z,99310.34
2023-02-05T21:55:34.062Z,99313.94
2023-02-05T21:58:02.396Z,99312.88
2023-02-05T22:00:32.004Z,99322.38
2023-02-05T22:03:00.111Z,99335.16
2023-02-05T22:05:28.264Z,99331.81
2023-02-05T22:07:56.345Z,99337.63
2023-02-05T22:10:24.465Z,99337.75
2023-02-05T22:12:52.634Z,99328.09
2023-02-05T22:15:20.820Z,99333.94
2023-02-05T22:17:50.488Z,99346.19
2023-02-05T22:20:23.146Z,99341.84
2023-02-05T22:22:51.567Z,99345.34
2023-02-05T22:25:19.790Z,99339.78
2023-02-05T22:27:47.987Z,99352.50
2023-02-05T22:30:16.130Z,99359.66
2023-02-05T22:32:44.247Z,99357.03
2023-02-05T22:35:13.892Z,99360.41
2023-02-05T22:37:42.038Z,99353.38
2023-02-05T22:40:11.087Z,99355.88
2023-02-05T22:42:39.256Z,99364.56
2023-02-05T22:45:07.888Z,99361.88
2023-02-05T22:47:36.093Z,99358.34
2023-02-05T22:50:04.257Z,99362.38
2023-02-05T22:52:33.714Z,99369.34
2023-02-05T22:55:01.836Z,99363.28
2023-02-05T22:57:29.948Z,99358.81
2023-02-05T22:59:59.203Z,99362.38
2023-02-05T23:02:27.280Z,99359.00
2023-02-05T23:04:55.386Z,99367.38
2023-02-05T23:07:23.474Z,99364.81
2023-02-05T23:09:53.049Z,99378.59
2023-02-05T23:12:21.106Z,99373.44
2023-02-05T23:14:49.193Z,99372.38
2023-02-05T23:17:17.274Z,99375.78
2023-02-05T23:19:47.996Z,99386.94
2023-02-05T23:22:16.050Z,99383.31
2023-02-05T23:24:44.129Z,99375.41
2023-02-05T23:27:13.700Z,99388.44
2023-02-05T23:29:41.735Z,99389.19
2023-02-05T23:32:15.069Z,99385.00
2023-02-05T23:34:43.307Z,99380.63
2023-02-05T23:37:11.669Z,99386.66
2023-02-05T23:39:39.785Z,99394.31
2023-02-05T23:42:07.904Z,99377.94
2023-02-05T23:44:37.378Z,99381.97
2023-02-05T23:47:05.589Z,99384.56
2023-02-05T23:49:33.714Z,99393.84
2023-02-05T23:52:01.842Z,99393.09
2023-02-05T23:54:30.007Z,99390.44
2023-02-05T23:56:58.217Z,99404.84
2023-02-05T23:59:26.306Z,99397.66
